Time;durP1;ratioP1;P1;durP2;ratioP2;P2;SDS_P1;SDS_P2;PMS_P1;PMS_P2;Temp;Humidity;BMP_temperature;BMP_pressure;BME280_temperature;BME280_humidity;BME280_pressure;Samples;Min_cycle;Max_cycle;Signal;HPM_P1;HPM_P2
2022/03/28 10:43:03;;;;;;;24.07;15.53;;;17.70;84.30;;;;;;6314944;22;20197;-90
2022/03/28 15:21:55;;;;;;;;;;;;;;;;;;;;;
2022/03/28 15:25:11;;;;;;;;;;;;;;;;;;;;;
2022/03/28 15:27:52;;;;;;;20.33;14.73;;;26.90;53.40;;;;;;6355300;22;20141;-95
2022/03/28 15:30:30;;;;;;;;;;;;;;;;;;;;;
2022/03/28 15:33:10;;;;;;;27.23;15.47;;;26.90;53.60;;;;;;6352260;22;20153;-96
2022/03/28 15:35:38;;;;;;;28.03;16.23;;;26.90;54.30;;;;;;6299123;22;20149;-96
2022/03/28 15:38:09;;;;;;;23.57;15.13;;;26.70;54.60;;;;;;6352007;22;20518;-96
2022/03/28 15:40:55;;;;;;;25.17;16.37;;;26.50;54.70;;;;;;6326018;22;20149;-96
2022/03/28 15:43:23;;;;;;;25.03;15.57;;;26.10;54.90;;;;;;6323994;22;20153;-96
2022/03/28 15:45:54;;;;;;;25.07;16.00;;;25.60;55.60;;;;;;6322282;22;20192;-96
2022/03/28 15:48:20;;;;;;;24.60;15.50;;;25.40;56.00;;;;;;6320868;22;20151;-96
2022/03/28 15:50:48;;;;;;;23.97;14.77;;;25.20;55.90;;;;;;6344550;22;20546;-96
2022/03/28 15:53:18;;;;;;;25.00;15.53;;;25.10;56.50;;;;;;6319302;22;20216;-96
2022/03/28 15:58:42;;;;;;;23.20;14.40;;;25.10;56.60;;;;;;6345570;22;20163;-96
2022/03/28 16:03:59;;;;;;;21.63;14.17;;;25.20;56.10;;;;;;6341783;22;20184;-92
2022/03/28 16:06:24;;;;;;;22.27;13.73;;;25.20;55.90;;;;;;6318520;22;20145;-95
2022/03/28 16:08:50;;;;;;;21.67;13.87;;;25.10;56.20;;;;;;6343940;22;20247;-94
2022/03/28 16:11:16;;;;;;;22.27;13.10;;;25.10;56.50;;;;;;6341000;22;20153;-94
2022/03/28 16:13:41;;;;;;;22.03;14.43;;;25.30;56.20;;;;;;6341138;22;20179;-96
2022/03/28 16:16:09;;;;;;;26.00;14.50;;;25.60;56.10;;;;;;6338802;22;20156;-95
2022/03/28 16:18:37;;;;;;;26.37;14.53;;;25.50;56.20;;;;;;6340063;22;20237;-95
2022/03/28 16:21:41;;;;;;;;;;;;;;;;;;;;;
2022/03/28 16:24:10;;;;;;;20.90;14.03;;;25.50;56.50;;;;;;6341594;22;20242;-96
2022/03/28 16:26:48;;;;;;;22.43;13.43;;;25.50;56.50;;;;;;6321118;22;20145;-96
2022/03/28 16:29:19;;;;;;;24.53;14.53;;;25.20;57.40;;;;;;6296310;22;20152;-96
2022/03/28 16:31:56;;;;;;;21.93;14.03;;;25.00;57.10;;;;;;6317573;22;20157;-95
2022/03/28 16:34:26;;;;;;;23.17;14.17;;;25.00;57.00;;;;;;6325083;22;20227;-96
2022/03/28 16:36:56;;;;;;;24.30;14.93;;;24.80;57.30;;;;;;6345980;22;20142;-96
2022/03/28 16:39:27;;;;;;;23.60;14.50;;;24.60;57.60;;;;;;6324931;22;20202;-96
2022/03/28 16:41:54;;;;;;;24.27;15.07;;;24.40;58.00;;;;;;6345293;22;20150;-96
2022/03/28 16:44:23;;;;;;;23.77;15.00;;;24.40;58.00;;;;;;6352189;22;20175;-96
2022/03/28 16:47:13;;;;;;;25.93;14.97;;;24.40;57.70;;;;;;6345476;22;20149;-96
2022/03/28 16:49:58;;;;;;;23.13;13.37;;;24.30;58.00;;;;;;6352572;22;20153;-96
2022/03/28 16:52:27;;;;;;;24.90;14.10;;;24.10;58.20;;;;;;6317899;22;20148;-93
2022/03/28 16:55:05;;;;;;;;;;;;;;;;;;;;;
2022/03/28 16:57:33;;;;;;;26.17;14.20;;;23.90;58.70;;;;;;6345993;22;20169;-96
2022/03/28 17:00:01;;;;;;;26.60;14.93;;;23.60;59.60;;;;;;6341186;22;20147;-96
2022/03/28 17:02:27;;;;;;;24.33;14.57;;;23.50;59.70;;;;;;6339647;22;20183;-96
2022/03/28 17:04:55;;;;;;;28.03;15.93;;;23.30;59.80;;;;;;6340887;22;20181;-95
2022/03/28 17:07:20;;;;;;;22.07;15.07;;;23.20;60.30;;;;;;6339976;22;20640;-96
2022/03/28 17:09:46;;;;;;;25.73;14.63;;;23.10;60.40;;;;;;6339814;22;20145;-96
2022/03/28 17:12:25;;;;;;;;;;;;;;;;;;;;;
2022/03/28 17:14:53;;;;;;;23.13;14.90;;;22.60;62.60;;;;;;6343987;22;20213;-96
2022/03/28 17:17:22;;;;;;;27.73;15.73;;;22.80;61.20;;;;;;6339742;22;20141;-96
2022/03/28 17:19:52;;;;;;;26.07;14.87;;;22.70;61.20;;;;;;6314231;22;20173;-96
2022/03/28 17:22:24;;;;;;;27.60;15.53;;;22.40;61.90;;;;;;6313239;22;20153;-96
2022/03/28 17:24:52;;;;;;;25.50;14.73;;;22.30;62.20;;;;;;6313801;22;20176;-96
2022/03/28 17:27:17;;;;;;;26.30;15.40;;;22.20;62.60;;;;;;6315529;22;20472;-95
2022/03/28 17:29:43;;;;;;;27.30;15.33;;;22.10;62.50;;;;;;6339201;22;20149;-96
2022/03/28 17:32:10;;;;;;;26.00;15.23;;;22.20;62.70;;;;;;6340083;22;20153;-96
2022/03/28 17:34:40;;;;;;;25.60;14.93;;;22.10;63.10;;;;;;6340918;22;20157;-96
2022/03/28 17:37:05;;;;;;;31.73;16.93;;;22.00;63.50;;;;;;6340973;22;20145;-96
2022/03/28 17:39:39;;;;;;;25.13;14.30;;;21.70;63.90;;;;;;6345093;22;20152;-96
2022/03/28 17:42:24;;;;;;;29.20;14.30;;;21.80;63.10;;;;;;6316511;22;20141;-96
2022/03/28 17:44:56;;;;;;;25.20;14.40;;;21.80;62.60;;;;;;6316499;22;20553;-96
2022/03/28 17:47:24;;;;;;;21.93;13.40;;;21.60;62.80;;;;;;6315565;22;20195;-96
2022/03/28 17:52:58;;;;;;;;;;;;;;;;;;;;;
2022/03/28 17:55:38;;;;;;;;;;;;;;;;;;;;;
2022/03/28 17:58:14;;;;;;;25.53;15.00;;;21.20;63.40;;;;;;6346795;22;20179;-96
2022/03/28 18:00:49;;;;;;;24.80;14.80;;;21.00;63.90;;;;;;6345653;22;20481;-95
2022/03/28 18:03:28;;;;;;;22.17;14.13;;;20.90;64.30;;;;;;6344555;22;20164;-96
2022/03/28 23:15:05;;;;;;;43.73;23.13;;;15.70;90.70;;;;;;6219763;22;20149;-87
2022/03/28 23:17:33;;;;;;;46.17;23.93;;;15.50;90.90;;;;;;6313627;22;20224;-94
2022/03/28 23:19:58;;;;;;;40.10;23.40;;;15.50;91.10;;;;;;6338804;22;20146;-94
2022/03/28 23:22:24;;;;;;;45.50;23.47;;;15.50;91.20;;;;;;6339156;22;20464;-94
2022/03/28 23:24:49;;;;;;;44.60;23.40;;;15.50;91.40;;;;;;6336416;22;20201;-95
2022/03/28 23:27:15;;;;;;;42.03;23.07;;;15.30;91.60;;;;;;6337004;22;20151;-94
2022/03/28 23:29:40;;;;;;;47.77;23.93;;;15.30;91.90;;;;;;6339139;22;20150;-94
2022/03/28 23:32:06;;;;;;;46.07;24.70;;;15.30;92.30;;;;;;6338968;22;20187;-95
2022/03/28 23:34:32;;;;;;;44.50;23.93;;;15.40;91.90;;;;;;6338529;22;20149;-95
2022/03/28 23:36:57;;;;;;;45.07;24.33;;;15.50;91.80;;;;;;6339035;22;20190;-94
2022/03/28 23:39:23;;;;;;;48.33;24.27;;;15.60;91.70;;;;;;6339056;22;20145;-94
2022/03/28 23:41:49;;;;;;;47.70;23.87;;;15.70;91.50;;;;;;6338518;22;20141;-94
2022/03/28 23:44:14;;;;;;;45.53;24.63;;;15.80;91.30;;;;;;6340116;22;20181;-94
2022/03/28 23:46:40;;;;;;;47.83;23.47;;;15.90;90.90;;;;;;6340005;22;20155;-95
2022/03/28 23:49:06;;;;;;;47.87;23.73;;;15.70;91.20;;;;;;6312686;22;20172;-94
2022/03/28 23:51:32;;;;;;;43.20;24.37;;;15.70;91.40;;;;;;6338686;22;20191;-94
2022/03/28 23:53:57;;;;;;;49.23;23.43;;;15.60;91.70;;;;;;6338859;22;20160;-94
2022/03/28 23:56:23;;;;;;;54.37;24.07;;;15.40;92.10;;;;;;6312981;22;20147;-94
2022/03/28 23:58:49;;;;;;;46.70;24.33;;;15.60;91.80;;;;;;6340330;22;20133;-94
